Terminal Aerodrome Forecast
Issued by NWS

Home | Current Version | Previous Version | Text Only | Print | Product List | Glossary On
Versions: 1 2 3 4 5 6 7 8 9 10 11 12 13 14 15 16 17 18 19 20 21 22 23 24 25
000
FTUS46 KSEW 261726
TAFSEA
TAF
KSEA 261726Z 2618/2724 VRB05KT P6SM OVC008
     FM261900 22004KT P6SM BKN011
     FM262030 27005KT P6SM SCT025
     FM262130 29005KT P6SM SCT250
     FM270300 34005KT P6SM SCT250
     FM270600 04006KT P6SM SCT250
     FM271300 03003KT P6SM SCT012 SCT250
      TEMPO 2713/2717 BKN012 BKN250
     FM272000 32008KT P6SM FEW250=

USA.gov is the U.S. government's official web portal to all federal, state and local government web resources and services.